Time;durP1;ratioP1;P1;durP2;ratioP2;P2;SDS_P1;SDS_P2;PMS_P1;PMS_P2;Temp;Humidity;BMP_temperature;BMP_pressure;BME280_temperature;BME280_humidity;BME280_pressure;Samples;Min_cycle;Max_cycle;Signal;HPM_P1;HPM_P2
2021/12/09 00:02:14;;;;;;;12.57;9.40;;;3.90;99.90;;;;;;5016666;28;20196;-60
2021/12/09 00:04:41;;;;;;;10.63;8.70;;;3.90;99.90;;;;;;5016398;28;20277;-60
2021/12/09 00:07:07;;;;;;;10.33;8.23;;;3.80;99.90;;;;;;5016686;28;20562;-60
2021/12/09 00:09:33;;;;;;;10.47;8.40;;;3.90;99.90;;;;;;5016850;28;20171;-60
2021/12/09 00:11:59;;;;;;;10.87;8.20;;;3.80;99.90;;;;;;5016254;28;20172;-61
2021/12/09 00:14:28;;;;;;;12.53;8.37;;;3.80;99.90;;;;;;5016167;28;20178;-61
2021/12/09 00:16:57;;;;;;;13.53;8.80;;;3.80;99.90;;;;;;4998238;28;20180;-60
2021/12/09 00:19:23;;;;;;;9.03;8.10;;;3.80;99.90;;;;;;5015732;28;20330;-60
2021/12/09 00:21:50;;;;;;;10.83;7.80;;;3.80;99.90;;;;;;5015670;28;20207;-61
2021/12/09 00:24:16;;;;;;;11.90;8.03;;;3.70;99.90;;;;;;5015004;28;20180;-60
2021/12/09 00:26:44;;;;;;;10.67;8.60;;;3.80;99.90;;;;;;4997774;28;20300;-61
2021/12/09 00:29:11;;;;;;;8.80;7.90;;;3.80;99.90;;;;;;4997987;28;20198;-61
2021/12/09 00:31:37;;;;;;;11.17;8.07;;;3.80;99.90;;;;;;4997902;28;20267;-61
2021/12/09 00:34:04;;;;;;;10.33;7.93;;;3.70;99.90;;;;;;5015410;28;20216;-60
2021/12/09 00:36:39;;;;;;;10.33;7.80;;;3.70;99.90;;;;;;5015807;28;20661;-61
2021/12/09 00:39:06;;;;;;;15.57;8.10;;;3.70;99.90;;;;;;5015788;28;20214;-60
2021/12/09 00:41:33;;;;;;;13.40;8.47;;;3.60;99.90;;;;;;5015446;28;20261;-60
2021/12/09 00:43:59;;;;;;;9.70;7.87;;;3.60;99.90;;;;;;4997677;28;20713;-61
2021/12/09 00:46:24;;;;;;;10.30;8.33;;;3.50;99.90;;;;;;5015375;28;20172;-61
2021/12/09 00:48:51;;;;;;;10.90;7.97;;;3.50;99.90;;;;;;5015223;28;20167;-60
2021/12/09 00:51:16;;;;;;;9.77;8.77;;;3.50;99.90;;;;;;5015228;28;20176;-60
2021/12/09 00:53:42;;;;;;;16.07;8.10;;;3.40;99.90;;;;;;4997500;28;20203;-60
2021/12/09 00:56:10;;;;;;;9.60;7.83;;;3.40;99.90;;;;;;5015147;28;20279;-60
2021/12/09 00:58:37;;;;;;;12.17;7.97;;;3.40;99.90;;;;;;5015043;28;20172;-61
2021/12/09 01:01:06;;;;;;;11.70;7.70;;;3.40;99.90;;;;;;5015252;28;20266;-60
2021/12/09 01:03:34;;;;;;;11.77;8.00;;;3.40;99.90;;;;;;5014871;28;20230;-61
2021/12/09 01:06:00;;;;;;;12.27;8.40;;;3.40;99.90;;;;;;4997735;28;20212;-60
2021/12/09 01:08:25;;;;;;;11.50;8.17;;;3.50;99.90;;;;;;5015155;28;20180;-60
2021/12/09 01:10:51;;;;;;;10.50;8.43;;;3.50;99.90;;;;;;5014916;28;20255;-60
2021/12/09 01:13:17;;;;;;;9.23;7.23;;;3.50;99.90;;;;;;5014954;28;20212;-62
2021/12/09 01:15:43;;;;;;;8.60;7.63;;;3.50;99.90;;;;;;5014741;28;20267;-61
2021/12/09 01:18:09;;;;;;;8.93;8.03;;;3.50;99.90;;;;;;5014781;28;20229;-60
2021/12/09 01:20:35;;;;;;;10.43;7.80;;;3.50;99.90;;;;;;5014912;28;20196;-61
2021/12/09 01:23:03;;;;;;;9.57;7.57;;;3.50;99.90;;;;;;5014575;28;20199;-61
2021/12/09 01:25:35;;;;;;;12.40;8.00;;;3.50;99.90;;;;;;5014594;28;20196;-62
2021/12/09 01:28:03;;;;;;;11.57;7.63;;;3.50;99.90;;;;;;5014658;28;20156;-61
2021/12/09 01:30:28;;;;;;;10.83;7.40;;;3.50;99.90;;;;;;5014563;28;20176;-61
2021/12/09 01:32:55;;;;;;;11.43;7.90;;;3.50;99.90;;;;;;5014544;28;20246;-61
2021/12/09 01:35:27;;;;;;;8.43;7.63;;;3.50;99.90;;;;;;5014459;28;20203;-61
2021/12/09 01:37:57;;;;;;;11.73;7.53;;;3.60;99.90;;;;;;5014534;28;20172;-61
2021/12/09 01:40:26;;;;;;;10.23;7.40;;;3.60;99.90;;;;;;5014275;28;20200;-60
2021/12/09 01:42:52;;;;;;;9.30;7.60;;;3.60;99.90;;;;;;5014500;28;20188;-60
2021/12/09 01:45:18;;;;;;;9.50;7.37;;;3.60;99.90;;;;;;5014560;28;20693;-60
2021/12/09 01:47:44;;;;;;;9.07;7.30;;;3.60;99.90;;;;;;5014207;28;20642;-61
2021/12/09 01:50:10;;;;;;;11.13;7.57;;;3.60;99.90;;;;;;4996479;28;20187;-61
2021/12/09 01:52:37;;;;;;;12.00;7.33;;;3.60;99.90;;;;;;5014288;28;20237;-61
2021/12/09 01:55:05;;;;;;;8.30;7.33;;;3.50;99.90;;;;;;5013984;28;20191;-60
2021/12/09 01:57:31;;;;;;;11.83;7.00;;;3.50;99.90;;;;;;5013913;28;20180;-61
2021/12/09 01:59:56;;;;;;;11.20;7.90;;;3.50;99.90;;;;;;5013832;28;20215;-60
2021/12/09 02:02:22;;;;;;;12.57;8.47;;;3.50;99.90;;;;;;4996060;28;20714;-61
2021/12/09 02:04:48;;;;;;;12.57;7.70;;;3.60;99.90;;;;;;4996269;28;20579;-61
2021/12/09 02:07:14;;;;;;;7.90;7.20;;;3.50;99.90;;;;;;5013760;28;20564;-61
2021/12/09 02:09:40;;;;;;;8.23;7.37;;;3.60;99.90;;;;;;4996076;28;20172;-61
2021/12/09 02:12:06;;;;;;;8.40;7.30;;;3.60;99.90;;;;;;5013759;28;20773;-60
2021/12/09 02:14:32;;;;;;;8.83;7.20;;;3.60;99.90;;;;;;5013740;28;20654;-60
2021/12/09 02:16:58;;;;;;;7.77;7.00;;;3.60;99.90;;;;;;5013624;28;20635;-60
2021/12/09 02:19:24;;;;;;;7.70;6.90;;;3.60;99.90;;;;;;5013816;28;20171;-61
2021/12/09 02:21:50;;;;;;;10.83;7.27;;;3.60;99.90;;;;;;5013732;28;20195;-60
2021/12/09 02:24:18;;;;;;;8.43;6.77;;;3.60;99.90;;;;;;5013423;28;20650;-60
2021/12/09 02:26:49;;;;;;;7.43;6.73;;;3.60;99.90;;;;;;5013422;28;20191;-61
2021/12/09 02:29:16;;;;;;;10.40;7.17;;;3.60;99.90;;;;;;5013979;28;20178;-61
2021/12/09 02:31:42;;;;;;;8.90;7.10;;;3.60;99.90;;;;;;4995541;28;20176;-63
2021/12/09 02:34:09;;;;;;;10.90;7.00;;;3.50;99.90;;;;;;4995716;28;20180;-60
2021/12/09 02:36:39;;;;;;;7.70;7.00;;;3.40;99.90;;;;;;5013510;28;20186;-60
2021/12/09 02:39:11;;;;;;;8.40;7.10;;;3.40;99.90;;;;;;5013495;28;20263;-61
2021/12/09 02:41:38;;;;;;;12.97;6.83;;;3.30;99.90;;;;;;5013611;28;20206;-60
2021/12/09 02:44:10;;;;;;;8.87;7.37;;;3.30;99.90;;;;;;5013337;28;20194;-61
2021/12/09 02:46:38;;;;;;;9.00;6.80;;;3.30;99.90;;;;;;5014396;28;20657;-61
2021/12/09 02:49:10;;;;;;;10.73;7.23;;;3.30;99.90;;;;;;5012605;28;20171;-61
2021/12/09 02:51:37;;;;;;;10.90;7.40;;;3.20;99.90;;;;;;5013531;28;20172;-61
2021/12/09 02:54:05;;;;;;;9.27;6.97;;;3.30;99.90;;;;;;5013081;28;20598;-60
2021/12/09 02:56:31;;;;;;;8.33;7.10;;;3.30;99.90;;;;;;4995442;28;20184;-61
2021/12/09 02:58:57;;;;;;;9.00;6.40;;;3.30;99.90;;;;;;4995462;28;20183;-60
2021/12/09 03:01:28;;;;;;;7.37;6.60;;;3.30;99.90;;;;;;5012894;28;20290;-60
2021/12/09 03:03:59;;;;;;;11.90;6.80;;;3.30;99.90;;;;;;5012986;28;20207;-60
2021/12/09 03:06:36;;;;;;;8.80;6.53;;;3.30;99.90;;;;;;5013078;28;20191;-60
2021/12/09 03:09:13;;;;;;;12.27;6.80;;;3.30;99.90;;;;;;5013245;28;20167;-61
2021/12/09 03:11:39;;;;;;;9.13;6.60;;;3.30;99.90;;;;;;5013266;28;20152;-61
2021/12/09 03:14:06;;;;;;;8.30;6.40;;;3.20;99.90;;;;;;4995288;28;20266;-61
2021/12/09 03:16:33;;;;;;;7.57;6.87;;;3.20;99.90;;;;;;5013205;28;20180;-62
2021/12/09 03:19:03;;;;;;;8.27;7.07;;;3.10;99.90;;;;;;5012795;28;20179;-61
2021/12/09 03:21:39;;;;;;;7.90;6.93;;;3.00;99.90;;;;;;5013196;28;20198;-60
2021/12/09 03:24:07;;;;;;;8.87;7.30;;;2.90;99.90;;;;;;5012779;28;20195;-60
2021/12/09 03:26:38;;;;;;;11.50;7.43;;;2.90;99.90;;;;;;5012787;28;20194;-61
2021/12/09 03:29:07;;;;;;;11.63;6.80;;;2.80;99.90;;;;;;5012811;28;20246;-60
2021/12/09 03:31:35;;;;;;;14.23;7.03;;;2.70;99.90;;;;;;5012875;28;20206;-60
2021/12/09 03:34:01;;;;;;;6.97;6.43;;;2.70;99.90;;;;;;5013023;28;20191;-60
2021/12/09 03:36:28;;;;;;;8.07;6.90;;;2.60;99.90;;;;;;5012913;28;20210;-61
2021/12/09 03:39:00;;;;;;;8.50;7.23;;;2.50;99.90;;;;;;5012642;28;20173;-61
2021/12/09 03:41:26;;;;;;;8.40;7.53;;;2.40;99.90;;;;;;5012768;28;20245;-61
2021/12/09 03:43:52;;;;;;;12.70;7.00;;;2.40;99.90;;;;;;5012543;28;20569;-61
2021/12/09 03:46:18;;;;;;;9.77;7.27;;;2.30;99.90;;;;;;5012937;28;20706;-60
2021/12/09 03:48:44;;;;;;;8.70;7.10;;;2.20;99.90;;;;;;4994923;28;20270;-60
2021/12/09 03:51:10;;;;;;;7.37;6.77;;;2.20;99.90;;;;;;5012923;28;20665;-60
2021/12/09 03:53:40;;;;;;;8.20;7.40;;;2.10;99.90;;;;;;5012839;28;20564;-60
2021/12/09 03:56:07;;;;;;;8.67;7.03;;;2.10;99.90;;;;;;4995312;28;20175;-60
2021/12/09 03:58:32;;;;;;;8.83;7.23;;;2.00;99.90;;;;;;5012488;28;20180;-60
2021/12/09 04:00:58;;;;;;;7.50;6.77;;;1.90;99.90;;;;;;5016173;28;20218;-60
2021/12/09 04:03:24;;;;;;;11.10;7.87;;;1.80;99.90;;;;;;4998262;28;20261;-60
2021/12/09 04:05:50;;;;;;;11.67;7.20;;;1.70;99.90;;;;;;4998438;28;20179;-60
2021/12/09 04:08:17;;;;;;;10.17;7.83;;;1.70;99.90;;;;;;5016630;28;20206;-60
2021/12/09 04:10:44;;;;;;;7.93;7.07;;;1.60;99.90;;;;;;5016206;28;20518;-60
2021/12/09 04:13:10;;;;;;;7.80;7.00;;;1.60;99.90;;;;;;5015912;28;20588;-60
2021/12/09 04:15:36;;;;;;;8.37;7.30;;;1.60;99.90;;;;;;5015885;28;20176;-60
2021/12/09 04:18:02;;;;;;;11.10;7.37;;;1.60;99.90;;;;;;5015887;28;20280;-60
2021/12/09 04:20:28;;;;;;;10.23;7.20;;;1.50;99.90;;;;;;5015739;28;20195;-60
2021/12/09 04:22:54;;;;;;;10.33;7.67;;;1.50;99.90;;;;;;5015593;28;20242;-61
2021/12/09 04:25:23;;;;;;;9.37;7.47;;;1.50;99.90;;;;;;5015734;28;20186;-62
2021/12/09 04:27:51;;;;;;;8.90;7.03;;;1.50;99.90;;;;;;5015682;28;20247;-60
2021/12/09 04:30:17;;;;;;;9.80;7.43;;;1.50;99.90;;;;;;4998000;28;20184;-60
2021/12/09 04:32:44;;;;;;;11.60;7.67;;;1.50;99.90;;;;;;5015724;28;20221;-60
2021/12/09 04:35:11;;;;;;;9.93;8.13;;;1.50;99.90;;;;;;4997915;28;20266;-60
2021/12/09 04:37:38;;;;;;;10.87;8.07;;;1.40;99.90;;;;;;5015447;28;20187;-60
2021/12/09 04:40:07;;;;;;;8.53;7.63;;;1.40;99.90;;;;;;5015700;28;20732;-60
2021/12/09 04:42:33;;;;;;;10.47;8.03;;;1.30;99.90;;;;;;5015617;28;20223;-60
2021/12/09 04:44:59;;;;;;;8.83;7.93;;;1.20;99.90;;;;;;5015814;28;20187;-60
2021/12/09 04:47:24;;;;;;;9.10;8.00;;;1.20;99.90;;;;;;5015373;28;20198;-60
2021/12/09 04:49:50;;;;;;;12.83;8.17;;;1.10;99.90;;;;;;5015303;28;20195;-60
2021/12/09 04:52:16;;;;;;;8.53;7.63;;;1.10;99.90;;;;;;5015110;28;20195;-60
2021/12/09 04:54:42;;;;;;;8.50;7.70;;;1.00;99.90;;;;;;5015198;28;20230;-60
2021/12/09 04:57:12;;;;;;;11.47;8.17;;;1.00;99.90;;;;;;5015649;28;20176;-60
2021/12/09 04:59:39;;;;;;;7.83;7.10;;;1.00;99.90;;;;;;5015085;28;20326;-60
2021/12/09 05:02:10;;;;;;;13.43;8.27;;;0.90;99.90;;;;;;4997331;28;20191;-60
2021/12/09 05:04:36;;;;;;;10.70;8.13;;;0.90;99.90;;;;;;4997369;28;20203;-60
2021/12/09 05:07:02;;;;;;;8.63;7.80;;;0.90;99.90;;;;;;5014941;28;20179;-60
2021/12/09 05:09:29;;;;;;;8.73;7.90;;;0.90;99.90;;;;;;5014792;28;20186;-61
2021/12/09 05:11:55;;;;;;;10.23;8.00;;;0.70;99.90;;;;;;4996661;28;20176;-60
2021/12/09 05:14:22;;;;;;;13.77;8.63;;;0.70;99.90;;;;;;4997164;28;20183;-60
2021/12/09 05:16:53;;;;;;;10.03;8.50;;;0.70;99.90;;;;;;5014711;28;20226;-60
2021/12/09 05:19:20;;;;;;;10.17;8.27;;;0.70;99.90;;;;;;5014726;28;20171;-60
2021/12/09 05:21:45;;;;;;;8.83;7.93;;;0.60;99.90;;;;;;5014505;28;20199;-61
2021/12/09 05:24:14;;;;;;;9.40;7.37;;;0.60;99.90;;;;;;4997052;28;20210;-60
2021/12/09 05:26:48;;;;;;;8.73;7.83;;;0.60;99.90;;;;;;5014667;28;20230;-60
2021/12/09 05:29:15;;;;;;;12.77;8.53;;;0.60;99.90;;;;;;5015022;28;20222;-60
2021/12/09 05:34:27;;;;;;;11.07;8.00;;;0.60;99.90;;;;;;5014767;28;20705;-60
2021/12/09 05:36:53;;;;;;;14.27;8.93;;;0.60;99.90;;;;;;5014691;28;20180;-60
2021/12/09 05:39:19;;;;;;;10.10;9.10;;;0.50;99.90;;;;;;5014675;28;20183;-61
2021/12/09 05:41:46;;;;;;;13.63;8.97;;;0.50;99.90;;;;;;5014496;28;20203;-60
2021/12/09 05:44:13;;;;;;;11.70;8.67;;;0.50;99.90;;;;;;5014832;28;20250;-60
2021/12/09 05:46:44;;;;;;;12.73;8.70;;;0.50;99.90;;;;;;4996909;28;20179;-61
2021/12/09 05:49:11;;;;;;;11.90;8.80;;;0.40;99.90;;;;;;5014715;28;20175;-60
2021/12/09 05:51:38;;;;;;;10.07;8.10;;;0.50;99.90;;;;;;5014440;28;20179;-60
2021/12/09 05:54:03;;;;;;;12.23;8.70;;;0.50;99.90;;;;;;5014339;28;20231;-61
2021/12/09 05:56:29;;;;;;;14.67;9.27;;;0.50;99.90;;;;;;5014350;28;20200;-61
2021/12/09 05:58:55;;;;;;;10.13;9.03;;;0.40;99.90;;;;;;5014505;28;20175;-60
2021/12/09 06:01:22;;;;;;;14.53;9.40;;;0.40;99.90;;;;;;5014187;28;20206;-61
2021/12/09 06:03:48;;;;;;;9.83;8.40;;;0.40;99.90;;;;;;5014014;28;20279;-60
2021/12/09 06:06:14;;;;;;;13.80;8.80;;;0.30;99.90;;;;;;5014366;28;20172;-60
2021/12/09 06:08:40;;;;;;;11.03;9.10;;;0.30;99.90;;;;;;5014097;28;20191;-60
2021/12/09 06:11:08;;;;;;;10.97;9.13;;;0.20;99.90;;;;;;5014559;28;20635;-60
2021/12/09 06:13:37;;;;;;;13.17;9.23;;;0.20;99.90;;;;;;5013989;28;20202;-61
2021/12/09 06:16:04;;;;;;;10.20;9.20;;;0.30;99.90;;;;;;5013942;28;20654;-60
2021/12/09 06:18:30;;;;;;;13.13;8.23;;;0.30;99.90;;;;;;4996289;28;20198;-60
2021/12/09 06:20:56;;;;;;;9.03;8.23;;;0.20;99.90;;;;;;5013795;28;20670;-61
2021/12/09 06:23:22;;;;;;;10.37;8.50;;;0.20;99.90;;;;;;5012849;28;20207;-60
2021/12/09 06:25:50;;;;;;;11.50;8.67;;;0.20;99.90;;;;;;5013828;28;20183;-60
2021/12/09 06:28:16;;;;;;;9.73;8.73;;;0.20;99.90;;;;;;5013889;28;20164;-60
2021/12/09 06:30:43;;;;;;;11.27;8.53;;;0.20;99.90;;;;;;5013941;28;20184;-60
2021/12/09 06:33:09;;;;;;;9.83;8.93;;;0.10;99.90;;;;;;4995936;28;20223;-60
2021/12/09 06:35:36;;;;;;;10.30;9.00;;;0.10;99.90;;;;;;5014017;28;20658;-61
2021/12/09 06:38:03;;;;;;;15.07;8.87;;;0.10;99.90;;;;;;4995869;28;20650;-61
2021/12/09 06:40:29;;;;;;;12.87;9.43;;;0.20;99.90;;;;;;4995918;28;20202;-60
2021/12/09 06:42:55;;;;;;;9.90;8.83;;;0.10;99.90;;;;;;5013597;28;20200;-62
2021/12/09 06:45:23;;;;;;;13.60;9.40;;;0.10;99.90;;;;;;5013489;28;20172;-61
2021/12/09 06:47:49;;;;;;;13.57;9.37;;;0.00;99.90;;;;;;5013969;28;20569;-61
2021/12/09 06:50:18;;;;;;;10.67;9.57;;;0.00;99.90;;;;;;5013436;28;20176;-61
2021/12/09 06:52:44;;;;;;;11.53;9.20;;;0.00;99.90;;;;;;5013282;28;20195;-61
2021/12/09 06:55:13;;;;;;;10.03;9.03;;;0.00;99.90;;;;;;5013507;28;20188;-62
2021/12/09 06:57:39;;;;;;;14.17;9.70;;;-0.10;99.90;;;;;;5013284;28;20175;-61
2021/12/09 07:00:11;;;;;;;12.00;9.73;;;-0.10;99.90;;;;;;5013521;28;20245;-61
2021/12/09 07:02:37;;;;;;;11.17;8.83;;;-0.10;99.90;;;;;;5012945;28;20207;-61
2021/12/09 07:05:04;;;;;;;14.33;9.60;;;-0.10;99.90;;;;;;4995694;28;20753;-61
2021/12/09 07:07:30;;;;;;;12.07;9.40;;;-0.20;99.90;;;;;;5013128;28;20183;-61
2021/12/09 07:09:56;;;;;;;20.47;10.53;;;-0.10;99.90;;;;;;5013093;28;20164;-61
2021/12/09 07:12:22;;;;;;;11.70;9.33;;;0.00;99.90;;;;;;5013114;28;20191;-61
2021/12/09 07:14:48;;;;;;;10.53;9.03;;;-0.10;99.90;;;;;;5013394;28;20211;-61
2021/12/09 07:17:15;;;;;;;11.80;9.97;;;-0.10;99.90;;;;;;4995546;28;20176;-61
2021/12/09 07:19:41;;;;;;;11.27;9.40;;;-0.10;99.90;;;;;;5013262;28;20163;-61
2021/12/09 07:22:06;;;;;;;16.47;10.00;;;-0.10;99.90;;;;;;5012929;28;20202;-61
2021/12/09 07:24:32;;;;;;;10.67;9.57;;;-0.10;99.90;;;;;;5013117;28;20176;-62
2021/12/09 07:26:58;;;;;;;10.93;9.43;;;-0.10;99.90;;;;;;4995386;28;20175;-61
2021/12/09 07:29:25;;;;;;;10.97;9.87;;;-0.10;99.90;;;;;;5013139;28;20200;-61
2021/12/09 07:31:51;;;;;;;14.73;9.87;;;-0.10;99.90;;;;;;5013148;28;20176;-61
2021/12/09 07:34:17;;;;;;;12.90;9.73;;;-0.20;99.90;;;;;;5014154;28;20184;-60
2021/12/09 07:36:43;;;;;;;13.47;10.30;;;-0.20;99.90;;;;;;5017063;28;20184;-61
2021/12/09 07:39:09;;;;;;;11.87;10.17;;;-0.10;99.90;;;;;;4999161;28;20176;-63
2021/12/09 07:41:35;;;;;;;14.00;9.80;;;-0.10;99.90;;;;;;5016911;28;20207;-61
2021/12/09 07:44:02;;;;;;;12.87;9.80;;;-0.20;99.90;;;;;;4999021;28;20203;-61
2021/12/09 07:46:35;;;;;;;11.87;9.73;;;-0.10;99.90;;;;;;5017157;28;20179;-61
2021/12/09 07:49:02;;;;;;;12.67;9.87;;;-0.10;99.90;;;;;;5016607;28;20176;-61
2021/12/09 07:51:28;;;;;;;16.40;11.60;;;0.00;99.90;;;;;;5016607;28;20250;-61
2021/12/09 07:53:53;;;;;;;16.87;10.90;;;0.00;99.90;;;;;;5016447;28;20706;-62
2021/12/09 07:56:19;;;;;;;12.07;10.37;;;0.00;99.90;;;;;;5016500;28;20182;-61
2021/12/09 07:58:45;;;;;;;16.03;11.30;;;0.00;99.90;;;;;;5016752;28;20639;-61
2021/12/09 08:01:11;;;;;;;13.87;11.27;;;0.00;99.90;;;;;;5016893;28;20613;-62
2021/12/09 08:03:38;;;;;;;13.93;9.83;;;-0.10;99.90;;;;;;4998528;28;20239;-62
2021/12/09 08:06:04;;;;;;;12.47;10.80;;;-0.10;99.90;;;;;;4998674;28;20176;-62
2021/12/09 08:08:29;;;;;;;13.00;10.17;;;-0.10;99.90;;;;;;5016269;28;20539;-63
2021/12/09 08:10:55;;;;;;;17.77;10.77;;;-0.10;99.90;;;;;;4998571;28;20714;-63
2021/12/09 08:13:23;;;;;;;15.20;11.07;;;-0.10;99.90;;;;;;5016129;28;20234;-63
2021/12/09 08:15:50;;;;;;;19.37;12.67;;;-0.10;99.90;;;;;;5016617;28;20176;-63
2021/12/09 08:20:47;;;;;;;15.07;12.30;;;-0.10;99.90;;;;;;5016563;28;20196;-63
2021/12/09 08:23:13;;;;;;;16.80;12.20;;;-0.10;99.90;;;;;;4998404;28;20233;-63
2021/12/09 08:25:40;;;;;;;15.57;12.17;;;-0.10;99.90;;;;;;5015989;28;20200;-63
2021/12/09 08:28:06;;;;;;;15.23;11.90;;;-0.10;99.90;;;;;;5015940;28;20202;-64
2021/12/09 08:30:32;;;;;;;13.50;10.83;;;-0.10;99.90;;;;;;5015808;28;20669;-62
2021/12/09 08:32:58;;;;;;;12.03;10.00;;;-0.10;99.90;;;;;;5015997;28;20670;-62
2021/12/09 08:35:25;;;;;;;17.63;10.37;;;-0.10;99.90;;;;;;4998094;28;20195;-62
2021/12/09 08:37:54;;;;;;;12.00;10.20;;;0.00;99.90;;;;;;4998195;28;20164;-62
2021/12/09 08:40:20;;;;;;;10.17;9.07;;;0.10;99.90;;;;;;5015833;28;20203;-62
2021/12/09 08:42:49;;;;;;;12.83;9.60;;;0.10;99.90;;;;;;5015991;28;20615;-62
2021/12/09 08:45:16;;;;;;;11.93;10.53;;;0.10;99.90;;;;;;4997427;28;20646;-62
2021/12/09 08:47:42;;;;;;;11.20;10.10;;;0.20;99.90;;;;;;5015498;28;20191;-62
2021/12/09 08:50:11;;;;;;;13.87;10.70;;;0.20;99.90;;;;;;5015752;28;20179;-62
2021/12/09 08:52:37;;;;;;;11.50;10.30;;;0.30;99.90;;;;;;4997740;28;20203;-62
2021/12/09 08:55:04;;;;;;;13.97;10.30;;;0.40;99.90;;;;;;5015446;28;20179;-62
2021/12/09 08:57:32;;;;;;;11.70;10.27;;;0.50;99.90;;;;;;4997739;28;20187;-62
2021/12/09 08:59:59;;;;;;;14.47;10.73;;;0.50;99.90;;;;;;4997892;28;20614;-62
2021/12/09 09:02:25;;;;;;;18.60;11.13;;;0.50;99.90;;;;;;4997534;28;20661;-62
2021/12/09 09:04:51;;;;;;;22.67;14.10;;;0.60;99.90;;;;;;5015871;28;20163;-62
2021/12/09 09:07:17;;;;;;;17.60;13.40;;;0.70;99.90;;;;;;5015512;28;20160;-62
2021/12/09 09:09:43;;;;;;;21.43;13.23;;;0.80;99.90;;;;;;5015074;28;20175;-62
2021/12/09 09:12:13;;;;;;;18.63;13.03;;;0.80;99.90;;;;;;5015179;28;20295;-62
2021/12/09 09:14:40;;;;;;;15.03;11.47;;;0.90;99.90;;;;;;4997528;28;20171;-62
2021/12/09 09:17:06;;;;;;;13.93;12.40;;;1.00;99.90;;;;;;4998124;28;20653;-62
2021/12/09 09:19:32;;;;;;;17.83;13.13;;;1.00;99.90;;;;;;5014981;28;20172;-62
2021/12/09 09:21:58;;;;;;;22.97;14.67;;;1.10;99.90;;;;;;5014715;28;20642;-63
2021/12/09 09:24:23;;;;;;;15.63;13.33;;;1.20;99.90;;;;;;5014803;28;20176;-62
2021/12/09 09:26:49;;;;;;;18.10;13.57;;;1.30;99.90;;;;;;5014865;28;20176;-62
2021/12/09 09:29:15;;;;;;;20.33;12.90;;;1.30;99.90;;;;;;5015082;28;20638;-62
2021/12/09 09:31:42;;;;;;;16.23;11.87;;;1.40;99.90;;;;;;5014751;28;20210;-62
2021/12/09 09:34:10;;;;;;;16.93;11.80;;;1.50;99.90;;;;;;5014628;28;20203;-62
2021/12/09 09:36:39;;;;;;;19.20;12.13;;;1.70;99.90;;;;;;5014958;28;20546;-62
2021/12/09 09:39:16;;;;;;;20.57;13.40;;;1.90;99.90;;;;;;5014620;28;20639;-62
2021/12/09 09:41:42;;;;;;;17.93;13.10;;;2.10;99.90;;;;;;5014862;28;20195;-63
2021/12/09 09:44:13;;;;;;;16.17;11.93;;;2.20;99.90;;;;;;5014468;28;20264;-62
2021/12/09 09:46:40;;;;;;;15.90;10.60;;;2.30;99.90;;;;;;5014824;28;20163;-62
2021/12/09 09:49:06;;;;;;;12.17;9.13;;;2.50;99.90;;;;;;5014496;28;20249;-62
2021/12/09 09:51:33;;;;;;;16.63;9.57;;;2.60;99.90;;;;;;5014408;28;20279;-62
2021/12/09 09:54:00;;;;;;;10.53;8.80;;;2.60;99.90;;;;;;5014308;28;20196;-62
2021/12/09 09:56:27;;;;;;;13.93;8.80;;;2.80;99.90;;;;;;5014638;28;20186;-62
2021/12/09 09:58:58;;;;;;;15.23;8.73;;;3.00;99.90;;;;;;5014377;28;20176;-62
2021/12/09 10:01:25;;;;;;;12.27;9.07;;;3.20;99.90;;;;;;5014606;28;20560;-62
2021/12/09 10:03:58;;;;;;;12.53;9.40;;;3.40;99.90;;;;;;5014041;28;20662;-62
2021/12/09 10:06:25;;;;;;;15.20;9.17;;;3.60;99.90;;;;;;5014452;28;20156;-62
2021/12/09 10:08:51;;;;;;;9.23;8.30;;;3.90;99.90;;;;;;5014134;28;20577;-62
2021/12/09 10:11:16;;;;;;;15.77;9.10;;;4.00;99.90;;;;;;5014067;28;20182;-62
2021/12/09 10:13:44;;;;;;;14.60;9.07;;;4.20;99.90;;;;;;5013974;28;20686;-62
2021/12/09 10:16:24;;;;;;;12.77;9.03;;;4.30;99.90;;;;;;5014237;28;20591;-62
2021/12/09 10:18:54;;;;;;;13.30;8.80;;;4.40;99.90;;;;;;5014038;28;20168;-62
2021/12/09 10:21:23;;;;;;;15.07;9.03;;;4.40;99.90;;;;;;5013905;28;20195;-62
2021/12/09 10:24:06;;;;;;;16.53;8.90;;;4.50;99.90;;;;;;4996303;28;20678;-62
2021/12/09 10:26:40;;;;;;;13.33;8.83;;;4.60;99.90;;;;;;5014174;28;20630;-62
2021/12/09 10:29:18;;;;;;;11.80;8.23;;;4.60;99.90;;;;;;5013771;28;20175;-62
2021/12/09 10:31:58;;;;;;;12.63;9.13;;;4.60;99.90;;;;;;5013822;28;20160;-62
2021/12/09 10:34:40;;;;;;;11.30;8.50;;;4.70;99.90;;;;;;5013983;28;20166;-62
2021/12/09 10:37:25;;;;;;;12.57;7.93;;;4.70;99.90;;;;;;5014169;28;20607;-62
2021/12/09 10:40:05;;;;;;;11.23;8.00;;;4.90;99.90;;;;;;4995819;28;20211;-62
2021/12/09 10:42:44;;;;;;;10.97;7.60;;;5.10;99.90;;;;;;5013571;28;20203;-62
2021/12/09 10:45:21;;;;;;;8.90;7.57;;;5.10;99.90;;;;;;5013825;28;20615;-62
2021/12/09 10:48:00;;;;;;;16.97;8.60;;;5.10;99.90;;;;;;5013847;28;20524;-62
2021/12/09 10:54:08;;;;;;;12.00;8.50;;;4.90;99.90;;;;;;5013700;28;20200;-62
2021/12/09 10:56:10;;;;;;;13.10;8.40;;;4.80;99.90;;;;;;4996364;28;20198;-62
2021/12/09 10:58:41;;;;;;;13.07;8.40;;;4.70;99.90;;;;;;5013423;28;20170;-62
2021/12/09 11:01:10;;;;;;;12.13;7.83;;;4.70;99.90;;;;;;5013838;28;20279;-62
2021/12/09 11:03:44;;;;;;;15.50;8.37;;;4.80;99.90;;;;;;5013231;28;20207;-62
2021/12/09 11:06:13;;;;;;;14.43;7.77;;;5.10;99.90;;;;;;5013313;28;20641;-62
2021/12/09 11:08:50;;;;;;;9.07;8.13;;;5.30;99.90;;;;;;5015165;28;20179;-62
2021/12/09 11:11:30;;;;;;;11.63;8.27;;;5.30;99.90;;;;;;5020065;28;20677;-62
2021/12/09 11:14:13;;;;;;;8.73;7.63;;;5.30;99.90;;;;;;5002086;28;20211;-62
2021/12/09 11:16:44;;;;;;;9.60;7.40;;;5.20;99.90;;;;;;5019854;28;20175;-63
2021/12/09 11:19:35;;;;;;;9.60;8.10;;;5.10;99.90;;;;;;5019759;28;20250;-62
2021/12/09 11:22:05;;;;;;;12.93;7.97;;;5.00;99.90;;;;;;5019652;28;20242;-61
2021/12/09 11:24:37;;;;;;;10.80;7.93;;;4.90;99.90;;;;;;5020043;28;20152;-61
2021/12/09 11:27:25;;;;;;;12.77;8.23;;;4.80;99.90;;;;;;5020160;28;20592;-61
2021/12/09 11:29:55;;;;;;;13.07;7.90;;;4.70;99.90;;;;;;5019984;28;20164;-62
2021/12/09 11:35:15;;;;;;;15.90;9.37;;;4.60;99.90;;;;;;5020229;28;20255;-61
2021/12/09 11:38:01;;;;;;;12.07;8.07;;;4.60;99.90;;;;;;5020226;28;20188;-62
2021/12/09 11:40:36;;;;;;;12.27;8.03;;;4.60;99.90;;;;;;5001991;28;20291;-61
2021/12/09 11:43:04;;;;;;;11.80;8.53;;;4.50;99.90;;;;;;5019782;28;20198;-61
2021/12/09 11:45:33;;;;;;;13.20;8.13;;;4.40;99.90;;;;;;5020212;28;20600;-61
2021/12/09 11:48:02;;;;;;;10.33;8.37;;;4.50;99.90;;;;;;5019509;28;20207;-61
2021/12/09 11:50:31;;;;;;;14.70;8.73;;;4.50;99.90;;;;;;5001828;28;20214;-61
2021/12/09 11:53:00;;;;;;;11.73;8.00;;;4.50;99.90;;;;;;5001857;28;20207;-61
2021/12/09 11:58:26;;;;;;;10.10;8.43;;;4.40;99.90;;;;;;4979793;28;20224;-62
2021/12/09 12:20:46;;;;;;;13.20;8.53;;;4.10;99.90;;;;;;5017710;28;20199;-63
2021/12/09 12:23:56;;;;;;;11.67;8.33;;;4.10;99.90;;;;;;5016361;28;20198;-62
2021/12/09 12:29:33;;;;;;;12.00;8.80;;;4.10;99.90;;;;;;5016290;28;20255;-62
2021/12/09 12:40:46;;;;;;;12.20;8.03;;;4.10;99.90;;;;;;5015783;28;20207;-61
2021/12/09 12:43:27;;;;;;;15.13;9.03;;;4.20;99.90;;;;;;5016082;28;20234;-62
2021/12/09 12:51:50;;;;;;;11.87;8.57;;;4.20;99.90;;;;;;5015939;28;20172;-62
2021/12/09 12:54:39;;;;;;;12.67;9.67;;;4.20;99.90;;;;;;5015899;28;20164;-64
2021/12/09 12:57:15;;;;;;;15.20;8.93;;;4.20;99.90;;;;;;4997907;28;20262;-63
2021/12/09 12:59:43;;;;;;;12.20;9.43;;;4.20;99.90;;;;;;5015525;28;20160;-63
2021/12/09 13:05:23;;;;;;;12.53;9.30;;;4.20;99.90;;;;;;5015383;28;20164;-64
2021/12/09 13:08:08;;;;;;;11.67;8.33;;;4.20;99.90;;;;;;4997773;28;20195;-64
2021/12/09 13:10:51;;;;;;;13.07;8.50;;;4.30;99.90;;;;;;5015561;28;20164;-63
2021/12/09 13:19:15;;;;;;;8.33;7.53;;;4.30;99.90;;;;;;5015405;28;20615;-63
2021/12/09 13:21:55;;;;;;;11.97;8.10;;;4.40;99.90;;;;;;4997354;28;20294;-63
2021/12/09 13:24:27;;;;;;;14.20;7.83;;;4.40;99.90;;;;;;5015244;28;20160;-63
2021/12/09 13:27:24;;;;;;;13.33;8.30;;;4.40;99.90;;;;;;5015255;28;20166;-63
2021/12/09 13:54:05;;;;;;;11.63;7.20;;;4.50;99.90;;;;;;5014876;28;20199;-64
2021/12/09 13:54:54;;;;;;;9.47;7.07;;;4.50;99.90;;;;;;5014208;28;20184;-63
2021/12/09 13:57:31;;;;;;;10.17;7.10;;;4.40;99.90;;;;;;5014764;28;20222;-63
2021/12/09 13:59:56;;;;;;;12.40;7.80;;;4.40;99.90;;;;;;5014591;28;20164;-63
2021/12/09 14:02:23;;;;;;;10.10;7.70;;;4.50;99.90;;;;;;5014334;28;20250;-64
2021/12/09 14:04:51;;;;;;;10.03;7.27;;;4.50;99.90;;;;;;5014680;28;20164;-63
2021/12/09 14:07:25;;;;;;;8.90;7.30;;;4.50;99.90;;;;;;5014489;28;20175;-64
2021/12/09 14:09:59;;;;;;;7.53;6.83;;;4.50;99.90;;;;;;5014533;28;20161;-63
2021/12/09 14:12:33;;;;;;;7.70;6.67;;;4.50;99.90;;;;;;5014623;28;20693;-64
2021/12/09 14:15:07;;;;;;;8.77;7.10;;;4.50;99.90;;;;;;5014736;28;20182;-64
2021/12/09 14:17:35;;;;;;;9.03;7.13;;;4.50;99.90;;;;;;5014990;28;20236;-65
2021/12/09 14:20:03;;;;;;;7.40;6.60;;;4.50;99.90;;;;;;5014773;28;20152;-64